Time;durP1;ratioP1;P1;durP2;ratioP2;P2;SDS_P1;SDS_P2;PMS_P1;PMS_P2;Temp;Humidity;BMP_temperature;BMP_pressure;BME280_temperature;BME280_humidity;BME280_pressure;Samples;Min_cycle;Max_cycle;Signal;HPM_P1;HPM_P2
2021/12/18 00:00:44;;;;;;;23.73;16.55;;;;;;;19.31;39.46;103836.91;4900178;29;20043;-80
2021/12/18 00:03:10;;;;;;;19.52;16.13;;;;;;;19.31;39.21;103840.50;4900123;29;20043;-79
2021/12/18 00:05:35;;;;;;;22.83;17.05;;;;;;;19.20;39.47;103841.75;4900083;29;20119;-79
2021/12/18 00:08:02;;;;;;;21.90;16.33;;;;;;;19.34;39.21;103847.38;4899979;29;20029;-80
2021/12/18 00:10:29;;;;;;;21.23;17.45;;;;;;;19.26;39.37;103843.31;4900003;29;20120;-80
2021/12/18 00:12:55;;;;;;;22.48;17.15;;;;;;;19.13;39.55;103842.13;4899972;29;20101;-79
2021/12/18 00:15:23;;;;;;;22.20;17.23;;;;;;;19.13;39.58;103841.28;4899892;29;20037;-79
2021/12/18 00:17:49;;;;;;;25.33;17.92;;;;;;;19.22;39.45;103839.50;4898620;29;20456;-79
2021/12/18 00:20:17;;;;;;;20.88;17.38;;;;;;;19.18;39.39;103843.97;4882935;29;20032;-80
2021/12/18 00:22:44;;;;;;;22.85;18.25;;;;;;;19.24;39.36;103842.81;4899851;29;20039;-79
2021/12/18 00:25:11;;;;;;;23.00;16.95;;;;;;;19.18;39.28;103846.75;4899662;29;20503;-79
2021/12/18 00:27:39;;;;;;;22.23;18.15;;;;;;;19.03;39.50;103842.22;4899552;29;20548;-80
2021/12/18 00:30:07;;;;;;;25.70;19.30;;;;;;;19.01;39.87;103847.25;4899680;29;20041;-80
2021/12/18 00:32:33;;;;;;;24.27;20.38;;;;;;;18.99;39.83;103857.81;4899628;29;20108;-79
2021/12/18 00:34:58;;;;;;;28.80;22.15;;;;;;;18.99;39.84;103846.72;4899512;29;20107;-80
2021/12/18 00:37:24;;;;;;;28.38;20.75;;;;;;;18.93;39.95;103852.63;4899573;29;20111;-79
2021/12/18 00:39:58;;;;;;;43.70;20.58;;;;;;;18.91;39.83;103843.78;4899354;29;20021;-79
2021/12/18 00:45:14;;;;;;;24.23;19.27;;;;;;;18.90;39.75;103844.91;4899502;29;20047;-79
2021/12/18 00:47:40;;;;;;;25.35;20.33;;;;;;;18.90;39.68;103837.41;4899190;29;20491;-79
2021/12/18 00:50:12;;;;;;;27.42;20.67;;;;;;;18.95;39.31;103840.09;4899372;29;20391;-80
2021/12/18 00:52:38;;;;;;;30.38;20.33;;;;;;;19.00;39.41;103828.16;4899329;29;20103;-79
2021/12/18 00:55:04;;;;;;;27.75;19.52;;;;;;;18.95;39.38;103829.03;4898876;29;20527;-80
2021/12/18 00:57:30;;;;;;;24.88;18.67;;;;;;;18.97;39.38;103823.22;4899116;29;20439;-78
2021/12/18 01:00:00;;;;;;;25.25;18.40;;;;;;;19.04;39.32;103824.50;4899368;29;20036;-79
2021/12/18 01:02:27;;;;;;;25.98;18.08;;;;;;;18.92;39.74;103821.31;4899189;29;20051;-81
2021/12/18 01:04:53;;;;;;;21.08;16.85;;;;;;;18.99;39.54;103818.19;4898944;29;20398;-79
2021/12/18 01:07:18;;;;;;;22.40;16.00;;;;;;;18.77;40.05;103819.53;4899055;29;20028;-79
2021/12/18 01:10:16;;;;;;;21.20;15.13;;;;;;;18.84;39.92;103813.66;4898947;29;20548;-79
2021/12/18 01:12:39;;;;;;;22.25;16.10;;;;;;;18.82;39.69;103808.41;4897592;29;20032;-79
2021/12/18 01:22:48;;;;;;;21.27;17.50;;;;;;;18.82;39.58;103808.41;4899123;29;20120;-79
2021/12/18 01:25:19;;;;;;;20.05;14.73;;;;;;;18.82;39.65;103800.09;4898665;29;20029;-79
2021/12/18 01:27:45;;;;;;;21.80;14.95;;;;;;;18.90;39.47;103806.13;4898495;29;20036;-80
2021/12/18 01:30:13;;;;;;;25.05;17.92;;;;;;;18.93;39.61;103808.28;4898388;29;20032;-78
2021/12/18 01:32:39;;;;;;;21.88;15.73;;;;;;;18.92;39.50;103796.38;4898529;29;20103;-79
2021/12/18 01:35:06;;;;;;;29.17;16.33;;;;;;;18.83;39.75;103800.94;4898508;29;20056;-80
2021/12/18 01:37:32;;;;;;;33.15;18.67;;;;;;;18.89;39.58;103796.94;4898457;29;20036;-78
2021/12/18 01:39:57;;;;;;;21.13;16.10;;;;;;;18.91;39.73;103791.97;4898329;29;20101;-79
2021/12/18 01:45:26;;;;;;;25.80;18.17;;;;;;;18.80;39.79;103794.00;4898361;29;20116;-79
2021/12/18 01:53:20;;;;;;;23.95;18.67;;;;;;;18.75;40.28;103796.03;4898229;29;20531;-80
2021/12/18 01:55:49;;;;;;;25.27;20.05;;;;;;;18.79;40.09;103797.91;4898154;29;20021;-79
2021/12/18 01:58:20;;;;;;;31.15;20.95;;;;;;;18.80;40.05;103801.50;4898080;29;20024;-78
2021/12/18 02:00:46;;;;;;;27.50;22.10;;;;;;;18.68;40.19;103798.34;4898071;29;20025;-79
2021/12/18 02:03:12;;;;;;;29.58;21.75;;;;;;;18.57;40.31;103797.56;4898112;29;20092;-79
2021/12/18 02:05:38;;;;;;;34.22;24.45;;;;;;;18.57;40.23;103803.13;4897960;29;20040;-79
2021/12/18 02:08:04;;;;;;;30.08;24.00;;;;;;;18.55;40.05;103797.88;4891692;29;20025;-80
2021/12/18 02:10:41;;;;;;;34.50;25.23;;;;;;;18.51;40.43;103798.75;4860695;29;20535;-78
2021/12/18 02:21:24;;;;;;;35.13;26.13;;;;;;;18.61;40.23;103798.66;4860810;29;20465;-79
2021/12/18 02:23:50;;;;;;;32.65;23.30;;;;;;;18.61;40.69;103795.88;4860549;29;20400;-82
2021/12/18 02:26:16;;;;;;;31.30;24.08;;;;;;;18.62;40.29;103797.53;4860411;29;20388;-79
2021/12/18 02:28:46;;;;;;;35.70;24.90;;;;;;;18.60;40.36;103802.53;4860385;29;20025;-79
2021/12/18 02:31:12;;;;;;;29.65;22.85;;;;;;;18.49;40.86;103795.44;4860407;29;20036;-79
2021/12/18 02:33:38;;;;;;;27.65;20.42;;;;;;;18.53;40.70;103793.75;4860303;29;20025;-79
2021/12/18 02:36:07;;;;;;;26.88;18.65;;;;;;;18.46;40.75;103787.75;4860384;29;20041;-78
2021/12/18 02:39:01;;;;;;;25.38;18.35;;;;;;;18.38;41.01;103788.38;4860314;29;20035;-79
2021/12/18 02:41:36;;;;;;;25.20;17.40;;;;;;;18.47;40.84;103789.41;4859707;29;20042;-78
2021/12/18 02:44:05;;;;;;;23.60;16.27;;;;;;;18.51;40.48;103787.66;4860300;29;20473;-79
2021/12/18 02:46:31;;;;;;;20.85;16.00;;;;;;;18.43;40.74;103780.84;4860258;29;20511;-79
2021/12/18 02:48:58;;;;;;;22.35;15.80;;;;;;;18.51;40.43;103773.81;4859932;29;20046;-79
2021/12/18 02:51:24;;;;;;;20.98;16.08;;;;;;;18.54;40.65;103778.78;4860250;29;20037;-78
2021/12/18 02:53:52;;;;;;;23.15;16.63;;;;;;;18.48;40.71;103771.66;4860241;29;20396;-79
2021/12/18 02:56:23;;;;;;;23.48;16.15;;;;;;;18.51;40.55;103773.81;4860133;29;20116;-79
2021/12/18 02:58:52;;;;;;;22.25;16.23;;;;;;;18.50;40.68;103774.94;4860112;29;20034;-78
2021/12/18 03:01:22;;;;;;;24.13;17.42;;;;;;;18.41;40.80;103776.72;4860145;29;20029;-91
2021/12/18 03:03:49;;;;;;;25.95;17.30;;;;;;;18.41;40.93;103766.47;4860208;29;20082;-79
2021/12/18 03:09:34;;;;;;;23.23;16.42;;;;;;;18.37;40.91;103768.19;4847571;29;20046;-78
2021/12/18 03:21:12;;;;;;;27.08;17.05;;;;;;;18.46;40.79;103768.38;4860131;29;20504;-80
2021/12/18 03:25:54;;;;;;;25.83;18.52;;;;;;;18.44;41.39;103771.44;4859935;29;20030;-79
2021/12/18 03:28:19;;;;;;;25.38;18.25;;;;;;;18.53;41.25;103766.91;4859939;29;20120;-78
2021/12/18 03:30:45;;;;;;;30.75;19.15;;;;;;;18.51;41.29;103769.16;4859814;29;20117;-91
2021/12/18 03:33:11;;;;;;;30.08;18.95;;;;;;;18.50;41.14;103755.56;4859832;29;20053;-78
2021/12/18 03:35:36;;;;;;;32.58;20.67;;;;;;;18.55;41.28;103752.75;4859703;29;20030;-79
2021/12/18 03:38:02;;;;;;;33.83;19.05;;;;;;;18.53;41.44;103755.00;4859795;29;20029;-79
2021/12/18 03:40:28;;;;;;;28.70;19.33;;;;;;;18.49;41.72;103754.75;4859828;29;20034;-78
2021/12/18 03:42:54;;;;;;;33.53;21.67;;;;;;;18.46;41.63;103735.97;4859925;29;20034;-79
2021/12/18 03:45:21;;;;;;;35.15;19.77;;;;;;;18.42;41.94;103734.06;4859724;29;20044;-79
2021/12/18 03:47:50;;;;;;;29.83;20.08;;;;;;;18.48;41.70;103739.25;4859507;29;20054;-78
2021/12/18 03:50:16;;;;;;;35.40;20.38;;;;;;;18.47;41.63;103732.06;4859257;29;20072;-80
2021/12/18 03:52:41;;;;;;;34.25;18.77;;;;;;;18.38;42.06;103742.16;4862211;29;20033;-79
2021/12/18 03:55:07;;;;;;;33.92;20.45;;;;;;;18.43;41.76;103731.00;4863046;29;20037;-79
2021/12/18 03:57:33;;;;;;;34.35;20.08;;;;;;;18.46;41.66;103733.19;4863062;29;20033;-79
2021/12/18 03:59:59;;;;;;;34.08;20.17;;;;;;;18.50;41.77;103738.97;4862961;29;20404;-78
2021/12/18 04:02:24;;;;;;;31.55;19.88;;;;;;;18.45;41.91;103736.25;4862948;29;20029;-79
2021/12/18 04:04:50;;;;;;;30.20;19.52;;;;;;;18.44;42.28;103734.59;4862814;29;20033;-79
2021/12/18 04:07:16;;;;;;;39.45;19.98;;;;;;;18.42;42.59;103729.34;4862851;29;20536;-78
2021/12/18 04:09:42;;;;;;;35.65;19.40;;;;;;;18.40;42.63;103730.78;4862707;29;20045;-78
2021/12/18 04:12:08;;;;;;;27.92;19.67;;;;;;;18.42;42.75;103723.81;4862740;29;20500;-79
2021/12/18 04:14:34;;;;;;;30.98;20.08;;;;;;;18.47;42.66;103726.53;4862713;29;20090;-79
2021/12/18 04:17:00;;;;;;;28.55;21.40;;;;;;;18.39;42.94;103726.38;4862698;29;20594;-78
2021/12/18 04:19:25;;;;;;;38.78;22.30;;;;;;;18.35;43.07;103731.66;4862614;29;20029;-80
2021/12/18 04:21:51;;;;;;;30.90;22.27;;;;;;;18.44;42.81;103731.81;4862662;29;20132;-79
2021/12/18 04:24:17;;;;;;;34.38;23.38;;;;;;;18.51;42.51;103729.53;4862621;29;20504;-78
2021/12/18 04:26:43;;;;;;;33.55;24.10;;;;;;;18.58;42.48;103724.47;4862597;29;20108;-79
2021/12/18 04:29:09;;;;;;;31.67;23.38;;;;;;;18.49;42.55;103727.06;4862476;29;20034;-79
2021/12/18 04:31:37;;;;;;;36.97;26.08;;;;;;;18.58;42.55;103732.75;4862400;29;20036;-78
2021/12/18 04:34:03;;;;;;;33.60;24.52;;;;;;;18.65;42.49;103730.47;4862372;29;20037;-79
2021/12/18 04:36:29;;;;;;;36.35;24.65;;;;;;;18.62;42.63;103731.06;4862452;29;20069;-79
2021/12/18 04:38:54;;;;;;;32.40;22.70;;;;;;;18.49;43.07;103731.78;4862326;29;20076;-80
2021/12/18 04:41:23;;;;;;;30.55;23.77;;;;;;;18.54;42.92;103731.72;4862275;29;20057;-78
2021/12/18 04:43:50;;;;;;;31.93;24.33;;;;;;;18.59;42.81;103726.13;4862253;29;20496;-78
2021/12/18 04:46:16;;;;;;;34.42;23.08;;;;;;;18.64;42.66;103725.22;4862197;29;20033;-80
2021/12/18 04:48:42;;;;;;;32.67;22.83;;;;;;;18.72;42.68;103725.41;4861967;29;20057;-79
2021/12/18 04:51:07;;;;;;;32.22;22.58;;;;;;;18.76;42.63;103731.22;4861920;29;20113;-79
2021/12/18 04:53:33;;;;;;;33.78;21.60;;;;;;;18.69;42.82;103726.03;4862184;29;20037;-79
2021/12/18 04:55:59;;;;;;;31.48;20.90;;;;;;;18.72;42.90;103727.38;4862016;29;20037;-78
2021/12/18 04:58:25;;;;;;;32.67;19.63;;;;;;;18.67;43.02;103722.75;4861933;29;20060;-78
2021/12/18 05:00:50;;;;;;;33.22;20.17;;;;;;;18.72;43.02;103725.41;4861942;29;20437;-79
2021/12/18 05:03:18;;;;;;;34.83;18.33;;;;;;;18.57;43.28;103723.63;4861223;29;20535;-78
2021/12/18 05:05:44;;;;;;;32.75;17.85;;;;;;;18.77;43.12;103719.81;4861876;29;20036;-79
2021/12/18 05:08:10;;;;;;;34.78;18.33;;;;;;;18.73;42.95;103727.06;4861745;29;20061;-79
2021/12/18 05:10:36;;;;;;;28.83;18.45;;;;;;;18.49;43.76;103726.22;4861532;29;20033;-78
2021/12/18 05:13:02;;;;;;;30.10;17.40;;;;;;;18.52;43.54;103728.44;4861695;29;20473;-79
2021/12/18 05:15:28;;;;;;;28.95;17.67;;;;;;;18.53;43.38;103727.31;4861663;29;20037;-79
2021/12/18 05:17:54;;;;;;;30.05;18.45;;;;;;;18.48;43.39;103725.41;4861640;29;20480;-78
2021/12/18 05:20:20;;;;;;;31.88;18.90;;;;;;;18.50;43.35;103733.41;4861698;29;20034;-79
2021/12/18 05:22:46;;;;;;;30.20;16.63;;;;;;;18.44;43.60;103734.59;4861544;29;20392;-78
2021/12/18 05:25:12;;;;;;;29.35;16.73;;;;;;;18.48;43.16;103730.94;4861400;29;20174;-80
2021/12/18 05:27:38;;;;;;;23.95;16.60;;;;;;;18.48;43.20;103728.19;4861396;29;20033;-80
2021/12/18 05:30:05;;;;;;;31.27;17.58;;;;;;;18.44;43.24;103727.13;4861261;29;20056;-79
2021/12/18 05:32:31;;;;;;;25.88;17.60;;;;;;;18.58;43.07;103735.53;4861338;29;20045;-80
2021/12/18 05:34:56;;;;;;;32.20;17.88;;;;;;;18.62;42.83;103739.38;4860260;29;20034;-79
2021/12/18 05:39:51;;;;;;;32.63;17.45;;;;;;;18.47;43.03;103742.31;4861468;29;20116;-79
2021/12/18 05:42:17;;;;;;;27.48;18.02;;;;;;;18.59;42.88;103737.22;4861170;29;20117;-79
2021/12/18 05:44:44;;;;;;;25.50;16.15;;;;;;;18.55;43.03;103733.38;4861244;29;20029;-90
2021/12/18 05:47:10;;;;;;;27.45;16.33;;;;;;;18.56;42.84;103732.25;4860852;29;20485;-79
2021/12/18 05:49:37;;;;;;;28.45;17.95;;;;;;;18.52;42.85;103726.50;4860971;29;20109;-78
2021/12/18 05:52:04;;;;;;;28.08;18.80;;;;;;;18.46;42.99;103733.19;4844437;29;20555;-80
2021/12/18 05:54:34;;;;;;;30.98;18.58;;;;;;;18.44;43.12;103735.44;4861164;29;20053;-79
2021/12/18 05:57:01;;;;;;;28.08;16.80;;;;;;;18.42;43.13;103740.44;4860779;29;20048;-79
2021/12/18 05:59:26;;;;;;;24.63;15.48;;;;;;;18.41;43.12;103737.97;4860981;29;20029;-79
2021/12/18 06:01:52;;;;;;;22.83;16.33;;;;;;;18.45;42.83;103739.03;4860847;29;20113;-80
2021/12/18 06:04:17;;;;;;;23.27;16.63;;;;;;;18.37;42.92;103731.38;4860765;29;20029;-79
2021/12/18 06:06:43;;;;;;;24.77;15.98;;;;;;;18.37;42.85;103725.84;4860898;29;20082;-78
2021/12/18 06:09:10;;;;;;;30.63;17.65;;;;;;;18.32;43.03;103731.41;4860713;29;20039;-79
2021/12/18 06:11:38;;;;;;;34.58;18.73;;;;;;;18.37;42.81;103731.38;4860488;29;20442;-80
2021/12/18 06:14:03;;;;;;;31.65;16.73;;;;;;;18.37;42.81;103734.13;4860443;29;20044;-80
2021/12/18 06:16:29;;;;;;;24.75;16.83;;;;;;;18.28;43.27;103736.69;4859928;29;20116;-80
2021/12/18 06:18:55;;;;;;;25.33;16.27;;;;;;;18.19;43.23;103739.28;4843951;29;20037;-78
2021/12/18 06:21:22;;;;;;;32.92;20.38;;;;;;;18.37;42.79;103737.72;4860606;29;20034;-78
2021/12/18 06:23:50;;;;;;;28.85;18.20;;;;;;;18.23;43.17;103740.38;4860525;29;20049;-78
2021/12/18 06:26:17;;;;;;;31.75;20.63;;;;;;;18.29;43.13;103733.66;4843871;29;20397;-78
2021/12/18 06:28:43;;;;;;;27.67;19.27;;;;;;;18.38;42.85;103736.63;4860573;29;20033;-79
2021/12/18 06:31:08;;;;;;;26.88;19.08;;;;;;;18.40;42.94;103744.63;4860527;29;20071;-79
2021/12/18 06:33:34;;;;;;;29.75;18.75;;;;;;;18.36;43.10;103741.59;4860588;29;20051;-79
2021/12/18 06:36:00;;;;;;;29.27;19.17;;;;;;;18.42;43.10;103737.66;4860094;29;20465;-79
2021/12/18 06:38:26;;;;;;;31.13;19.35;;;;;;;18.41;43.25;103740.72;4859832;29;20041;-78
2021/12/18 06:40:52;;;;;;;27.58;17.88;;;;;;;18.30;43.32;103740.84;4860218;29;20037;-78
2021/12/18 06:43:17;;;;;;;37.97;18.35;;;;;;;18.34;43.28;103745.78;4860304;29;20461;-79
2021/12/18 06:45:43;;;;;;;27.17;17.73;;;;;;;18.29;43.39;103735.59;4860331;29;20552;-80
2021/12/18 06:48:09;;;;;;;29.77;17.70;;;;;;;18.26;43.68;103737.00;4860034;29;20080;-79
2021/12/18 06:50:36;;;;;;;26.25;16.70;;;;;;;18.34;43.31;103734.72;4860157;29;20038;-78
2021/12/18 06:53:02;;;;;;;25.05;17.40;;;;;;;18.35;43.24;103728.88;4860082;29;20034;-78
2021/12/18 06:55:28;;;;;;;27.65;18.00;;;;;;;18.32;43.32;103732.25;4860274;29;20042;-79
2021/12/18 06:57:54;;;;;;;35.92;20.27;;;;;;;18.32;43.21;103737.78;4860179;29;20029;-79
2021/12/18 07:00:21;;;;;;;34.10;18.83;;;;;;;18.34;43.33;103740.25;4860612;29;20041;-88
2021/12/18 07:02:47;;;;;;;31.58;19.17;;;;;;;18.32;43.48;103742.50;4860143;29;20116;-79
2021/12/18 07:05:14;;;;;;;27.00;18.35;;;;;;;18.34;43.55;103743.84;4860076;29;20538;-80
2021/12/18 07:07:40;;;;;;;28.58;18.85;;;;;;;18.28;43.72;103745.00;4843458;29;20471;-78
2021/12/18 07:10:08;;;;;;;25.40;16.98;;;;;;;18.21;43.78;103752.81;4859936;29;20034;-77
2021/12/18 07:12:34;;;;;;;28.50;17.33;;;;;;;18.10;44.05;103741.03;4860106;29;20036;-78
2021/12/18 07:15:01;;;;;;;30.00;18.27;;;;;;;18.35;43.60;103741.91;4860035;29;20135;-78
2021/12/18 07:17:26;;;;;;;27.80;17.83;;;;;;;18.30;43.72;103749.16;4859884;29;20030;-78
2021/12/18 07:19:52;;;;;;;27.73;17.30;;;;;;;18.22;43.88;103749.78;4859932;29;20503;-79
2021/12/18 07:22:17;;;;;;;26.85;17.58;;;;;;;18.25;43.77;103743.66;4859964;29;20393;-79
2021/12/18 07:24:43;;;;;;;28.05;18.48;;;;;;;18.25;43.83;103743.66;4859895;29;20033;-78
2021/12/18 07:27:10;;;;;;;34.58;20.35;;;;;;;18.27;43.83;103746.94;4861750;29;20116;-79
2021/12/18 07:29:36;;;;;;;31.60;19.63;;;;;;;18.27;43.93;103746.13;4863460;29;20444;-78
2021/12/18 07:32:02;;;;;;;31.85;20.63;;;;;;;18.35;43.90;103730.81;4863450;29;20511;-78
2021/12/18 07:34:27;;;;;;;33.20;20.98;;;;;;;18.30;43.96;103740.03;4863381;29;20104;-78
2021/12/18 07:36:53;;;;;;;26.10;19.27;;;;;;;18.24;44.19;103733.72;4863583;29;20121;-78
2021/12/18 07:39:19;;;;;;;32.00;20.85;;;;;;;18.26;44.10;103742.53;4863453;29;20048;-79
2021/12/18 07:41:45;;;;;;;34.08;20.58;;;;;;;18.23;44.36;103745.06;4863283;29;20038;-78
2021/12/18 07:44:10;;;;;;;25.00;18.30;;;;;;;18.23;44.36;103739.53;4863288;29;20374;-78
2021/12/18 07:46:38;;;;;;;29.30;17.83;;;;;;;18.32;44.40;103737.78;4863230;29;20057;-77
2021/12/18 07:49:06;;;;;;;22.67;16.35;;;;;;;18.22;44.12;103737.91;4862988;29;20065;-78
2021/12/18 07:51:32;;;;;;;25.55;16.10;;;;;;;18.13;44.48;103734.09;4863152;29;20042;-78
2021/12/18 07:53:58;;;;;;;22.13;16.42;;;;;;;18.09;44.30;103731.09;4863079;29;20126;-75
2021/12/18 07:56:24;;;;;;;19.40;15.23;;;;;;;17.97;44.72;103738.94;4863085;29;20037;-77
2021/12/18 07:58:51;;;;;;;28.52;15.35;;;;;;;18.16;44.13;103728.81;4862926;29;20030;-77
2021/12/18 08:01:17;;;;;;;27.33;17.30;;;;;;;18.20;44.08;103735.41;4863247;29;20507;-79
2021/12/18 08:03:43;;;;;;;25.85;16.83;;;;;;;18.25;44.03;103743.66;4869751;29;20100;-78
2021/12/18 08:06:08;;;;;;;23.58;16.50;;;;;;;18.12;44.21;103738.81;4876429;29;20021;-77
2021/12/18 08:08:34;;;;;;;25.17;16.52;;;;;;;18.07;44.59;103741.63;4880220;29;20189;-77
2021/12/18 08:11:00;;;;;;;23.67;16.00;;;;;;;18.28;44.06;103737.53;4881228;29;20033;-77
2021/12/18 08:13:26;;;;;;;32.17;16.77;;;;;;;18.34;44.20;103737.47;4881190;29;20445;-76
2021/12/18 08:15:51;;;;;;;24.15;15.38;;;;;;;18.35;44.15;103741.91;4881254;29;20040;-77
2021/12/18 08:18:17;;;;;;;25.80;14.73;;;;;;;18.38;43.82;103735.78;4881217;29;20065;-83
2021/12/18 08:20:43;;;;;;;22.85;14.57;;;;;;;18.33;44.20;103738.59;4880909;29;20037;-77
2021/12/18 08:23:09;;;;;;;22.02;12.80;;;;;;;18.27;44.35;103746.13;4879578;29;20085;-78
2021/12/18 08:25:34;;;;;;;15.40;11.60;;;;;;;18.26;44.10;103747.25;4879474;29;20507;-79
2021/12/18 08:28:01;;;;;;;17.35;12.27;;;;;;;18.30;44.12;103751.09;4879465;29;20033;-78
2021/12/18 08:30:28;;;;;;;21.60;11.68;;;;;;;18.25;44.30;103749.19;4879310;29;20040;-77
2021/12/18 08:32:54;;;;;;;16.98;12.13;;;;;;;18.18;44.29;103754.25;4877261;29;20040;-75
2021/12/18 08:35:19;;;;;;;18.00;13.15;;;;;;;18.25;44.28;103749.19;4880701;29;20040;-77
2021/12/18 08:37:45;;;;;;;23.77;15.25;;;;;;;18.20;44.45;103757.53;4879860;29;20477;-76
2021/12/18 08:40:12;;;;;;;25.95;15.82;;;;;;;18.12;44.51;103758.16;4880758;29;20044;-76
2021/12/18 08:42:39;;;;;;;20.33;14.13;;;;;;;18.23;44.38;103762.50;4881055;29;20516;-76
2021/12/18 08:45:05;;;;;;;18.73;13.38;;;;;;;18.27;44.36;103758.03;4880700;29;20032;-76
2021/12/18 08:47:31;;;;;;;15.13;10.57;;;;;;;18.23;44.37;103765.28;4880590;29;20048;-76
2021/12/18 08:49:57;;;;;;;14.63;10.07;;;;;;;18.14;44.69;103761.50;4880610;29;20531;-87
2021/12/18 08:52:22;;;;;;;19.05;13.85;;;;;;;18.19;44.40;103763.38;4879906;29;20031;-76
2021/12/18 08:54:48;;;;;;;31.45;14.52;;;;;;;18.25;44.17;103759.44;4880450;29;20510;-77
2021/12/18 08:57:14;;;;;;;18.90;13.23;;;;;;;18.20;44.27;103752.00;4880281;29;20033;-77
2021/12/18 08:59:41;;;;;;;21.50;13.88;;;;;;;18.16;44.58;103767.56;4880570;29;20032;-78
2021/12/18 09:02:07;;;;;;;16.85;11.40;;;;;;;18.08;44.81;103770.13;4878213;29;20025;-77
2021/12/18 09:04:33;;;;;;;14.95;10.70;;;;;;;17.92;45.31;103763.91;4879615;29;20522;-76
2021/12/18 09:06:59;;;;;;;18.90;12.23;;;;;;;18.07;44.90;103772.06;4878141;29;20100;-77
2021/12/18 09:09:25;;;;;;;18.55;11.15;;;;;;;18.05;44.98;103766.00;4879313;29;20151;-77
2021/12/18 09:11:50;;;;;;;17.25;12.32;;;;;;;18.13;44.84;103767.31;4876962;29;20029;-84
2021/12/18 09:14:16;;;;;;;16.55;12.32;;;;;;;18.15;44.85;103765.91;4879348;29;20053;-88
2021/12/18 09:16:42;;;;;;;20.33;12.00;;;;;;;18.16;44.74;103775.03;4879344;29;20025;-76
2021/12/18 09:19:07;;;;;;;13.43;8.82;;;;;;;17.87;45.60;103770.31;4880168;29;20052;-75
2021/12/18 09:21:33;;;;;;;16.33;11.00;;;;;;;18.20;44.72;103790.75;4878611;29;20528;-76
2021/12/18 09:23:59;;;;;;;19.40;11.80;;;;;;;18.29;44.43;103782.66;4866067;29;20040;-77
2021/12/18 09:26:24;;;;;;;16.92;11.60;;;;;;;18.30;44.47;103774.06;4863487;29;20025;-78
2021/12/18 09:28:50;;;;;;;17.48;11.55;;;;;;;18.24;44.80;103769.69;4864515;29;20826;-76
2021/12/18 09:31:16;;;;;;;17.25;10.30;;;;;;;18.25;44.89;103776.06;4864182;29;20040;-77
2021/12/18 09:33:42;;;;;;;16.08;9.18;;;;;;;18.20;44.85;103785.22;4863326;29;20053;-77
2021/12/18 09:36:08;;;;;;;12.07;9.07;;;;;;;18.15;44.93;103779.75;4864494;29;20029;-87
2021/12/18 09:38:34;;;;;;;15.82;9.13;;;;;;;18.18;44.84;103779.16;4864990;29;20401;-88
2021/12/18 09:41:00;;;;;;;11.90;7.50;;;;;;;18.16;45.05;103778.63;4863111;29;20148;-78
2021/12/18 09:43:26;;;;;;;13.32;8.60;;;;;;;18.28;44.61;103783.75;4863505;29;20029;-83
2021/12/18 09:45:53;;;;;;;15.43;8.18;;;;;;;18.30;44.67;103784.31;4865392;29;20479;-79
2021/12/18 09:48:22;;;;;;;22.15;8.63;;;;;;;18.42;44.47;103792.19;4862492;29;20037;-77
2021/12/18 09:50:55;;;;;;;20.02;9.88;;;;;;;18.41;44.21;103782.25;4862987;29;20396;-77
2021/12/18 09:53:21;;;;;;;12.15;8.68;;;;;;;18.35;44.58;103784.25;4863115;29;20556;-78
2021/12/18 09:55:47;;;;;;;15.13;8.82;;;;;;;18.36;44.62;103785.88;4864127;29;20029;-79
2021/12/18 09:58:12;;;;;;;17.00;9.63;;;;;;;18.39;44.54;103799.16;4864390;29;20036;-84
2021/12/18 10:00:38;;;;;;;15.38;8.55;;;;;;;18.36;44.82;103793.38;4863393;29;20026;-90
2021/12/18 10:03:04;;;;;;;20.58;10.05;;;;;;;18.46;44.54;103793.28;4863121;29;20036;-78
2021/12/18 10:05:33;;;;;;;14.60;8.82;;;;;;;18.44;44.62;103787.19;4865296;29;20044;-77
2021/12/18 10:08:17;;;;;;;18.55;9.90;;;;;;;18.41;44.60;103777.53;4863426;29;20021;-82
2021/12/18 10:11:01;;;;;;;22.65;9.45;;;;;;;18.51;44.44;103779.38;4857071;29;20041;-77
2021/12/18 10:13:27;;;;;;;16.63;9.88;;;;;;;18.51;44.69;103782.13;4855307;29;20126;-79
2021/12/18 10:16:08;;;;;;;17.23;9.05;;;;;;;18.48;44.64;103785.50;4860543;29;20600;-80
2021/12/18 10:18:34;;;;;;;16.83;10.13;;;;;;;18.51;44.50;103785.75;4857070;29;20730;-78
2021/12/18 10:21:20;;;;;;;14.60;9.07;;;;;;;18.52;44.62;103789.34;4857941;29;20067;-78
2021/12/18 10:23:48;;;;;;;15.07;8.63;;;;;;;18.55;44.30;103792.34;4857473;29;20052;-78
2021/12/18 10:26:42;;;;;;;13.20;8.98;;;;;;;18.57;44.21;103792.03;4856775;29;20519;-79
2021/12/18 10:29:35;;;;;;;14.85;9.80;;;;;;;18.57;44.44;103789.28;4855341;29;20133;-77
2021/12/18 10:32:07;;;;;;;19.92;8.55;;;;;;;18.60;44.35;103787.88;4858658;29;20130;-77
2021/12/18 10:34:33;;;;;;;19.30;8.15;;;;;;;18.68;44.03;103801.09;4857456;29;20737;-77
2021/12/18 10:37:15;;;;;;;20.85;8.70;;;;;;;18.52;44.44;103794.88;4858786;29;20052;-80
2021/12/18 10:39:45;;;;;;;19.75;8.80;;;;;;;18.60;44.22;103794.25;4859343;29;20659;-77
2021/12/18 10:42:45;;;;;;;24.40;7.80;;;;;;;18.55;44.39;103791.50;4858453;29;20580;-78
2021/12/18 10:45:17;;;;;;;21.67;8.20;;;;;;;18.64;44.20;103780.63;4853671;29;20056;-81
2021/12/18 10:48:08;;;;;;;15.70;9.55;;;;;;;18.65;44.23;103785.84;4859518;29;20049;-78
2021/12/18 10:50:49;;;;;;;30.63;11.88;;;;;;;18.62;44.30;103775.38;4859802;29;20144;-78
2021/12/18 10:53:15;;;;;;;17.10;8.05;;;;;;;18.67;44.07;103778.13;4871300;29;20074;-81
2021/12/18 10:55:52;;;;;;;17.65;9.05;;;;;;;18.66;44.33;103778.41;4861260;29;20021;-77
2021/12/18 10:58:28;;;;;;;24.73;9.30;;;;;;;18.73;44.22;103776.91;4875526;29;20486;-77
2021/12/18 11:00:57;;;;;;;27.55;9.35;;;;;;;18.83;43.97;103767.69;4876616;29;20029;-78
2021/12/18 11:03:32;;;;;;;23.73;8.57;;;;;;;18.68;44.43;103774.22;4879910;29;20040;-77
2021/12/18 11:06:03;;;;;;;28.63;9.00;;;;;;;18.76;44.35;103770.00;4870638;29;20029;-82
2021/12/18 11:08:29;;;;;;;24.83;7.88;;;;;;;18.81;44.29;103773.50;4862666;29;20044;-83
2021/12/18 11:14:16;;;;;;;19.92;7.32;;;;;;;18.82;44.36;103761.31;4807520;29;20125;-82
2021/12/18 11:16:48;;;;;;;16.25;8.40;;;;;;;18.93;44.17;103761.19;4857655;29;20049;-82
2021/12/18 11:19:16;;;;;;;25.05;8.02;;;;;;;18.98;43.95;103756.41;4849218;29;20425;-82
2021/12/18 11:21:45;;;;;;;19.02;6.75;;;;;;;18.95;43.92;103748.66;4866253;29;20037;-81
2021/12/18 11:24:12;;;;;;;15.80;6.63;;;;;;;18.94;43.92;103757.28;4867114;29;20034;-81
2021/12/18 11:26:44;;;;;;;17.05;7.05;;;;;;;18.91;44.07;103744.88;4866344;29;20025;-82
2021/12/18 11:29:47;;;;;;;18.60;7.03;;;;;;;19.03;43.84;103761.84;4864267;29;20043;-81
2021/12/18 11:32:27;;;;;;;19.50;7.35;;;;;;;19.14;43.72;103757.03;4865575;29;20029;-82
2021/12/18 11:34:54;;;;;;;10.70;6.03;;;;;;;19.00;43.86;103753.34;4865022;29;20032;-82
2021/12/18 11:37:22;;;;;;;11.65;5.40;;;;;;;19.00;43.75;103761.66;4878220;29;20080;-81
2021/12/18 11:39:49;;;;;;;31.08;7.20;;;;;;;19.04;43.62;103757.13;4881775;29;20555;-82
2021/12/18 11:42:16;;;;;;;22.33;7.78;;;;;;;19.12;43.79;103760.09;4875705;29;20964;-81
2021/12/18 11:44:54;;;;;;;19.33;6.93;;;;;;;19.14;43.73;103765.34;4866080;29;20028;-82
2021/12/18 11:47:24;;;;;;;22.92;8.15;;;;;;;19.15;43.79;103755.88;4849233;29;20056;-82
2021/12/18 11:49:52;;;;;;;33.10;8.43;;;;;;;19.10;44.27;103769.81;4866009;29;20075;-81
2021/12/18 11:52:17;;;;;;;18.60;5.55;;;;;;;19.29;43.43;103767.88;4866372;29;20033;-82
2021/12/18 11:54:50;;;;;;;13.93;5.88;;;;;;;19.35;43.37;103769.47;4867013;29;20081;-81
2021/12/18 11:57:35;;;;;;;26.27;7.95;;;;;;;19.25;43.63;103766.81;4865484;29;20028;-82
2021/12/18 12:00:01;;;;;;;20.60;7.70;;;;;;;19.35;43.42;103769.47;4866131;29;20029;-81
2021/12/18 12:02:48;;;;;;;25.42;8.05;;;;;;;19.35;43.45;103761.16;4865402;29;20076;-82